createdAt,value
2019-03-19T00:00:01.122Z,18
2019-03-19T00:01:01.090Z,20
2019-03-19T00:02:01.087Z,19
2019-03-19T00:03:01.092Z,18
2019-03-19T00:04:01.090Z,19
2019-03-19T00:05:01.090Z,17
2019-03-19T00:06:01.343Z,15
2019-03-19T00:07:01.089Z,16
2019-03-19T00:11:01.086Z,18
2019-03-19T00:12:01.087Z,19
2019-03-19T00:15:01.089Z,20
2019-03-19T00:16:01.087Z,18
2019-03-19T00:18:01.088Z,17
2019-03-19T00:20:01.829Z,16
2019-03-19T00:23:01.090Z,15
2019-03-19T00:24:01.088Z,14
2019-03-19T00:25:01.088Z,15
2019-03-19T00:26:01.059Z,16
2019-03-19T00:28:01.117Z,17
2019-03-19T00:29:01.097Z,16
2019-03-19T00:30:01.061Z,15
2019-03-19T00:32:01.089Z,13
2019-03-19T00:35:01.116Z,14
2019-03-19T00:36:01.092Z,15
2019-03-19T00:37:01.093Z,16
2019-03-19T00:38:01.122Z,18
2019-03-19T00:39:01.092Z,17
2019-03-19T00:40:01.092Z,16
2019-03-19T00:41:01.092Z,15
2019-03-19T00:42:01.089Z,13
2019-03-19T00:44:01.121Z,15
2019-03-19T00:45:01.095Z,13
2019-03-19T00:46:01.089Z,14
2019-03-19T00:47:01.090Z,15
2019-03-19T00:48:01.090Z,14
2019-03-19T00:50:01.116Z,16
2019-03-19T00:51:01.093Z,15
2019-03-19T00:52:01.091Z,16
2019-03-19T00:55:01.115Z,15
2019-03-19T00:56:02.024Z,18
2019-03-19T00:57:01.092Z,17
2019-03-19T00:59:01.092Z,18
2019-03-19T01:00:01.123Z,17
2019-03-19T01:01:01.091Z,15
2019-03-19T01:02:01.093Z,18
2019-03-19T01:04:01.094Z,17
2019-03-19T01:07:01.114Z,15
2019-03-19T01:09:01.095Z,16
2019-03-19T01:10:01.115Z,17
2019-03-19T01:12:01.095Z,19
2019-03-19T01:14:01.094Z,18
2019-03-19T01:15:01.128Z,17
2019-03-19T01:16:01.092Z,19
2019-03-19T01:17:01.094Z,18
2019-03-19T01:18:01.093Z,19
2019-03-19T01:19:01.092Z,18
2019-03-19T01:20:01.118Z,20
2019-03-19T01:21:01.097Z,19
2019-03-19T01:22:01.096Z,17
2019-03-19T01:24:01.098Z,16
2019-03-19T01:26:01.103Z,14
2019-03-19T01:27:01.114Z,16
2019-03-19T01:29:01.094Z,14
2019-03-19T01:30:01.123Z,15
2019-03-19T01:31:01.094Z,17
2019-03-19T01:32:01.094Z,16
2019-03-19T01:33:01.095Z,17
2019-03-19T01:34:01.094Z,21
2019-03-19T01:35:01.133Z,19
2019-03-19T01:36:01.098Z,20
2019-03-19T01:38:01.098Z,17
2019-03-19T01:40:01.096Z,18
2019-03-19T01:41:01.105Z,16
2019-03-19T01:43:01.102Z,18
2019-03-19T01:44:01.094Z,17
2019-03-19T01:45:01.093Z,16
2019-03-19T01:46:01.093Z,18
2019-03-19T01:52:01.091Z,19
2019-03-19T01:53:01.096Z,18
2019-03-19T01:54:01.092Z,17
2019-03-19T01:55:01.134Z,18
2019-03-19T01:56:04.958Z,17
2019-03-19T01:57:01.091Z,15
2019-03-19T01:58:01.094Z,17
2019-03-19T01:59:01.094Z,18
2019-03-19T02:00:06.104Z,17
2019-03-19T02:01:01.094Z,18
2019-03-19T02:02:01.094Z,19
2019-03-19T02:05:01.131Z,20
2019-03-19T02:06:01.094Z,19
2019-03-19T02:07:01.094Z,20
2019-03-19T02:08:01.093Z,18
2019-03-19T02:09:01.093Z,17
2019-03-19T02:11:01.093Z,18
2019-03-19T02:12:01.093Z,17
2019-03-19T02:13:01.093Z,18
2019-03-19T02:14:01.094Z,17
2019-03-19T02:15:01.129Z,16
2019-03-19T02:16:01.095Z,15
2019-03-19T02:18:01.093Z,14
2019-03-19T02:19:01.094Z,16
2019-03-19T02:21:02.053Z,17
2019-03-19T02:22:01.094Z,16
2019-03-19T02:23:01.093Z,17
2019-03-19T02:24:01.095Z,16
2019-03-19T02:25:01.131Z,15
2019-03-19T02:26:01.098Z,16
2019-03-19T02:27:01.092Z,18
2019-03-19T02:29:01.095Z,16
2019-03-19T02:30:01.130Z,19
2019-03-19T02:32:01.103Z,18
2019-03-19T02:33:01.099Z,16
2019-03-19T02:34:01.096Z,17
2019-03-19T02:35:01.126Z,15
2019-03-19T02:36:01.094Z,13
2019-03-19T02:38:01.103Z,15
2019-03-19T02:40:01.129Z,16
2019-03-19T02:41:01.094Z,18
2019-03-19T02:43:01.097Z,19
2019-03-19T02:44:01.107Z,20
2019-03-19T02:45:01.123Z,17
2019-03-19T02:46:01.129Z,16
2019-03-19T02:47:01.098Z,15
2019-03-19T02:48:01.097Z,14
2019-03-19T02:49:02.103Z,13
2019-03-19T02:52:01.119Z,14
2019-03-19T02:53:01.079Z,15
2019-03-19T02:55:01.085Z,16
2019-03-19T02:56:01.080Z,17
2019-03-19T02:57:01.081Z,19
2019-03-19T02:59:01.106Z,17
2019-03-19T03:00:01.084Z,16
2019-03-19T03:04:01.114Z,19
2019-03-19T03:05:01.080Z,20
2019-03-19T03:08:01.079Z,21
2019-03-19T03:09:01.079Z,19
2019-03-19T03:10:01.107Z,18
2019-03-19T03:11:01.077Z,17
2019-03-19T03:13:01.088Z,15
2019-03-19T03:15:01.156Z,13
2019-03-19T03:16:01.102Z,12
2019-03-19T03:17:01.084Z,13
2019-03-19T03:19:01.087Z,14
2019-03-19T03:20:01.080Z,15
2019-03-19T03:21:01.076Z,16
2019-03-19T03:23:01.079Z,14
2019-03-19T03:24:01.077Z,17
2019-03-19T03:28:01.103Z,18
2019-03-19T03:29:01.083Z,16
2019-03-19T03:30:01.080Z,16
2019-03-19T03:31:01.110Z,15
2019-03-19T03:32:01.079Z,16
2019-03-19T03:34:01.082Z,15
2019-03-19T03:35:01.098Z,13
2019-03-19T03:36:01.108Z,15
2019-03-19T03:37:01.080Z,14
2019-03-19T03:39:01.082Z,15
2019-03-19T03:40:01.086Z,17
2019-03-19T03:45:01.118Z,18
2019-03-19T03:46:01.105Z,17
2019-03-19T03:47:01.078Z,18
2019-03-19T03:48:01.081Z,19
2019-03-19T03:49:01.079Z,20
2019-03-19T03:50:01.084Z,18
2019-03-19T03:54:01.122Z,16
2019-03-19T03:55:02.101Z,17
2019-03-19T03:56:01.085Z,18
2019-03-19T03:58:01.110Z,16
2019-03-19T03:59:01.492Z,17
2019-03-19T04:00:01.095Z,17
2019-03-19T04:01:01.106Z,15
2019-03-19T04:02:01.085Z,14
2019-03-19T04:05:01.105Z,12
2019-03-19T04:07:01.088Z,11
2019-03-19T04:08:01.115Z,14
2019-03-19T04:09:01.080Z,18
2019-03-19T04:10:01.084Z,19
2019-03-19T04:11:01.081Z,21
2019-03-19T04:12:01.082Z,20
2019-03-19T04:13:01.084Z,17
2019-03-19T04:14:01.106Z,14
2019-03-19T04:15:01.083Z,14
2019-03-19T04:16:01.082Z,13
2019-03-19T04:17:01.083Z,15
2019-03-19T04:18:01.088Z,18
2019-03-19T04:21:01.109Z,21
2019-03-19T04:22:01.083Z,20
2019-03-19T04:23:02.064Z,17
2019-03-19T04:24:01.084Z,19
2019-03-19T04:26:01.114Z,17
2019-03-19T04:29:01.080Z,18
2019-03-19T04:30:01.114Z,17
2019-03-19T04:31:01.080Z,16
2019-03-19T04:32:01.080Z,17
2019-03-19T04:33:01.081Z,18
2019-03-19T04:34:01.081Z,16
2019-03-19T04:35:01.088Z,15
2019-03-19T04:36:01.081Z,14
2019-03-19T04:37:01.084Z,12
2019-03-19T04:38:01.083Z,13
2019-03-19T04:39:01.091Z,14
2019-03-19T04:40:01.085Z,15
2019-03-19T04:41:01.084Z,16
2019-03-19T04:42:01.084Z,17
2019-03-19T04:45:01.083Z,16
2019-03-19T04:49:01.082Z,15
2019-03-19T04:50:01.083Z,17
2019-03-19T04:51:01.097Z,16
2019-03-19T04:54:01.081Z,18
2019-03-19T04:55:01.085Z,16
2019-03-19T04:56:01.082Z,17
2019-03-19T05:00:01.116Z,17
2019-03-19T05:02:01.080Z,18
2019-03-19T05:04:01.080Z,17
2019-03-19T05:06:01.082Z,16
2019-03-19T05:07:01.088Z,15
2019-03-19T05:10:01.083Z,16
2019-03-19T05:11:01.082Z,17
2019-03-19T05:12:01.110Z,18
2019-03-19T05:13:01.086Z,19
2019-03-19T05:14:01.080Z,18
2019-03-19T05:15:01.081Z,20
2019-03-19T05:16:01.079Z,19
2019-03-19T05:17:01.105Z,18
2019-03-19T05:18:01.083Z,16
2019-03-19T05:19:01.146Z,15
2019-03-19T05:23:01.105Z,14
2019-03-19T05:24:01.201Z,15
2019-03-19T05:25:01.162Z,14
2019-03-19T05:27:01.082Z,15
2019-03-19T05:29:01.083Z,16
2019-03-19T05:30:01.255Z,15
2019-03-19T05:31:01.082Z,17
2019-03-19T05:32:01.081Z,18
2019-03-19T05:34:01.562Z,17
2019-03-19T05:36:01.082Z,15
2019-03-19T05:37:01.147Z,14
2019-03-19T05:38:01.082Z,15
2019-03-19T05:39:01.082Z,16
2019-03-19T05:40:01.107Z,15
2019-03-19T05:42:01.081Z,16
2019-03-19T05:45:01.082Z,17
2019-03-19T05:46:01.085Z,16
2019-03-19T05:49:01.107Z,15
2019-03-19T05:50:01.208Z,16
2019-03-19T05:51:01.082Z,18
2019-03-19T05:52:01.081Z,16
2019-03-19T05:55:01.091Z,14
2019-03-19T05:56:01.086Z,13
2019-03-19T05:57:01.148Z,14
2019-03-19T05:58:01.086Z,15
2019-03-19T05:59:01.108Z,14
2019-03-19T06:00:01.084Z,16
2019-03-19T06:02:01.093Z,18
2019-03-19T06:04:01.148Z,19
2019-03-19T06:07:01.085Z,18
2019-03-19T06:10:01.084Z,17
2019-03-19T06:12:06.092Z,18
2019-03-19T06:15:01.087Z,17
2019-03-19T06:16:02.057Z,16
2019-03-19T06:18:01.091Z,15
2019-03-19T06:19:01.111Z,14
2019-03-19T06:20:01.087Z,18
2019-03-19T06:21:01.088Z,20
2019-03-19T06:24:01.113Z,19
2019-03-19T06:25:01.089Z,15
2019-03-19T06:26:01.122Z,13
2019-03-19T06:27:01.088Z,11
2019-03-19T06:28:01.119Z,13
2019-03-19T06:29:01.113Z,14
2019-03-19T06:30:01.101Z,15
2019-03-19T06:31:01.102Z,17
2019-03-19T06:33:01.097Z,16
2019-03-19T06:34:01.120Z,17
2019-03-19T06:37:01.091Z,16
2019-03-19T06:38:01.093Z,17
2019-03-19T06:43:01.090Z,18
2019-03-19T06:45:01.089Z,18
2019-03-19T06:47:01.090Z,16
2019-03-19T06:48:01.962Z,15
2019-03-19T06:49:01.091Z,11
2019-03-19T06:50:01.091Z,12
2019-03-19T06:53:01.091Z,13
2019-03-19T06:54:01.091Z,14
2019-03-19T06:55:01.109Z,15
2019-03-19T06:57:01.090Z,16
2019-03-19T06:59:01.090Z,17
2019-03-19T07:00:01.092Z,16
2019-03-19T07:01:01.860Z,17
2019-03-19T07:02:01.091Z,18
2019-03-19T07:04:01.091Z,17
2019-03-19T07:07:01.097Z,18
2019-03-19T07:09:01.093Z,20
2019-03-19T07:11:01.090Z,19
2019-03-19T07:14:01.099Z,20
2019-03-19T07:15:01.095Z,18
2019-03-19T07:16:01.098Z,20
2019-03-19T07:17:01.111Z,21
2019-03-19T07:18:01.127Z,20
2019-03-19T07:21:01.096Z,19
2019-03-19T07:22:01.094Z,18
2019-03-19T07:23:01.119Z,17
2019-03-19T07:24:01.097Z,16
2019-03-19T07:30:01.095Z,18
2019-03-19T07:32:01.095Z,17
2019-03-19T07:33:02.339Z,18
2019-03-19T07:34:01.094Z,20
2019-03-19T07:35:01.100Z,18
2019-03-19T07:38:01.256Z,17
2019-03-19T07:39:01.096Z,15
2019-03-19T07:40:01.097Z,14
2019-03-19T07:41:01.102Z,13
2019-03-19T07:43:01.130Z,12
2019-03-19T07:44:01.098Z,13
2019-03-19T07:45:01.100Z,14
2019-03-19T07:46:01.098Z,15
2019-03-19T07:48:01.122Z,16
2019-03-19T07:49:02.392Z,17
2019-03-19T07:51:01.098Z,16
2019-03-19T07:53:01.121Z,17
2019-03-19T07:56:01.097Z,20
2019-03-19T08:00:01.101Z,19
2019-03-19T08:01:02.156Z,17
2019-03-19T08:03:01.132Z,15
2019-03-19T08:04:01.099Z,16
2019-03-19T08:05:01.095Z,17
2019-03-19T08:06:01.693Z,18
2019-03-19T08:07:01.098Z,16
2019-03-19T08:08:01.120Z,18
2019-03-19T08:09:01.095Z,17
2019-03-19T08:10:01.100Z,16
2019-03-19T08:11:01.129Z,15
2019-03-19T08:12:01.097Z,16
2019-03-19T08:14:01.096Z,17
2019-03-19T08:15:01.097Z,15
2019-03-19T08:16:01.223Z,14
2019-03-19T08:17:01.657Z,13
2019-03-19T08:19:01.103Z,12
2019-03-19T08:20:01.097Z,15
2019-03-19T08:21:01.135Z,16
2019-03-19T08:24:01.116Z,18
2019-03-19T08:25:01.100Z,17
2019-03-19T08:28:01.124Z,18
2019-03-19T08:29:01.099Z,17
2019-03-19T08:30:01.103Z,16
2019-03-19T08:31:01.103Z,15
2019-03-19T08:33:02.522Z,16
2019-03-19T08:34:01.088Z,14
2019-03-19T08:35:01.084Z,13
2019-03-19T08:36:08.904Z,14
2019-03-19T08:37:01.084Z,15
2019-03-19T08:39:01.116Z,16
2019-03-19T08:40:01.085Z,17
2019-03-19T08:43:01.085Z,15
2019-03-19T08:44:01.090Z,17
2019-03-19T08:45:01.111Z,17
2019-03-19T08:46:01.084Z,16
2019-03-19T08:47:01.084Z,18
2019-03-19T08:48:01.089Z,19
2019-03-19T08:49:01.085Z,17
2019-03-19T08:51:01.084Z,19
2019-03-19T08:52:01.085Z,16
2019-03-19T08:53:01.084Z,15
2019-03-19T08:54:01.087Z,14
2019-03-19T08:56:01.214Z,13
2019-03-19T08:57:01.084Z,15
2019-03-19T08:58:01.086Z,17
2019-03-19T09:00:01.141Z,18
2019-03-19T09:05:03.068Z,19
2019-03-19T09:06:01.112Z,20
2019-03-19T09:07:01.086Z,18
2019-03-19T09:08:01.085Z,17
2019-03-19T09:09:01.089Z,18
2019-03-19T09:10:01.084Z,16
2019-03-19T09:11:01.326Z,14
2019-03-19T09:12:01.150Z,16
2019-03-19T09:14:01.087Z,15
2019-03-19T09:15:01.088Z,15
2019-03-19T09:16:01.087Z,16
2019-03-19T09:17:02.083Z,15
2019-03-19T09:18:01.090Z,14
2019-03-19T09:21:01.113Z,15
2019-03-19T09:22:01.087Z,16
2019-03-19T09:23:01.094Z,17
2019-03-19T09:24:01.086Z,18
2019-03-19T09:27:01.117Z,17
2019-03-19T09:28:01.091Z,16
2019-03-19T09:30:01.089Z,17
2019-03-19T09:33:01.113Z,18
2019-03-19T09:35:01.088Z,19
2019-03-19T09:36:01.087Z,18
2019-03-19T09:37:01.112Z,17
2019-03-19T09:39:01.091Z,16
2019-03-19T09:40:01.089Z,13
2019-03-19T09:41:01.092Z,14
2019-03-19T09:42:01.120Z,17
2019-03-19T09:43:01.090Z,18
2019-03-19T09:44:01.089Z,20
2019-03-19T09:45:01.092Z,21
2019-03-19T09:46:01.089Z,20
2019-03-19T09:47:01.089Z,17
2019-03-19T09:48:01.128Z,16
2019-03-19T09:50:01.091Z,15
2019-03-19T09:51:01.091Z,16
2019-03-19T09:52:01.090Z,17
2019-03-19T09:53:01.114Z,16
2019-03-19T09:54:01.096Z,15
2019-03-19T09:57:01.091Z,14
2019-03-19T09:58:01.127Z,15
2019-03-19T10:00:01.092Z,15
2019-03-19T10:01:01.091Z,16
2019-03-19T10:02:01.094Z,18
2019-03-19T10:04:01.123Z,17
2019-03-19T10:05:02.167Z,18
2019-03-19T10:07:05.880Z,19
2019-03-19T10:08:01.136Z,20
2019-03-19T10:10:01.126Z,19
2019-03-19T10:12:01.091Z,18
2019-03-19T10:13:01.111Z,17
2019-03-19T10:15:01.129Z,18
2019-03-19T10:16:01.093Z,17
2019-03-19T10:18:01.094Z,18
2019-03-19T10:19:01.092Z,19
2019-03-19T10:20:01.225Z,17
2019-03-19T10:22:02.212Z,19
2019-03-19T10:23:01.095Z,18
2019-03-19T10:24:01.098Z,19
2019-03-19T10:26:01.118Z,20
2019-03-19T10:28:02.117Z,19
2019-03-19T10:29:01.094Z,18
2019-03-19T10:30:01.103Z,20
2019-03-19T10:31:01.133Z,17
2019-03-19T10:32:01.092Z,16
2019-03-19T10:34:01.159Z,14
2019-03-19T10:35:01.103Z,13
2019-03-19T10:36:01.120Z,16
2019-03-19T10:37:01.094Z,15
2019-03-19T10:39:01.094Z,16
2019-03-19T10:40:01.107Z,17
2019-03-19T10:45:01.092Z,16
2019-03-19T10:46:01.093Z,17
2019-03-19T10:47:01.092Z,15
2019-03-19T10:48:01.124Z,17
2019-03-19T10:51:01.733Z,16
2019-03-19T10:52:01.092Z,18
2019-03-19T10:54:01.117Z,19
2019-03-19T10:56:01.091Z,18
2019-03-19T10:57:01.091Z,16
2019-03-19T10:58:10.543Z,17
2019-03-19T10:59:01.092Z,18
2019-03-19T11:00:01.091Z,18
2019-03-19T11:01:01.092Z,17
2019-03-19T11:02:01.092Z,20
2019-03-19T11:03:01.090Z,18
2019-03-19T11:06:01.091Z,19
2019-03-19T11:07:01.093Z,17
2019-03-19T11:09:01.090Z,16
2019-03-19T11:12:02.142Z,17
2019-03-19T11:14:01.093Z,16
2019-03-19T11:15:01.090Z,16
2019-03-19T11:16:01.091Z,14
2019-03-19T11:17:01.092Z,15
2019-03-19T11:19:01.102Z,16
2019-03-19T11:21:01.104Z,15
2019-03-19T11:22:01.088Z,16
2019-03-19T11:23:01.091Z,17
2019-03-19T11:24:01.088Z,16
2019-03-19T11:25:01.088Z,17
2019-03-19T11:27:01.089Z,15
2019-03-19T11:28:01.092Z,16
2019-03-19T11:29:01.092Z,19
2019-03-19T11:30:01.091Z,18
2019-03-19T11:31:01.089Z,19
2019-03-19T11:34:01.090Z,18
2019-03-19T11:36:01.090Z,17
2019-03-19T11:37:01.088Z,16
2019-03-19T11:38:01.090Z,14
2019-03-19T11:39:01.162Z,13
2019-03-19T11:42:01.090Z,14
2019-03-19T11:45:01.098Z,16
2019-03-19T11:46:01.094Z,15
2019-03-19T11:47:01.091Z,16
2019-03-19T11:48:01.091Z,14
2019-03-19T11:49:01.127Z,13
2019-03-19T11:50:01.097Z,11
2019-03-19T11:53:01.094Z,12
2019-03-19T11:54:01.125Z,14
2019-03-19T11:55:01.091Z,15
2019-03-19T11:58:01.094Z,16
2019-03-19T11:59:01.127Z,15
2019-03-19T12:00:10.640Z,17
2019-03-19T12:01:01.095Z,19
2019-03-19T12:02:01.100Z,18
2019-03-19T12:03:11.371Z,19
2019-03-19T12:05:01.142Z,18
2019-03-19T12:06:01.094Z,16
2019-03-19T12:08:01.094Z,15
2019-03-19T12:09:01.094Z,14
2019-03-19T12:10:01.139Z,15
2019-03-19T12:11:01.094Z,16
2019-03-19T12:13:01.101Z,17
2019-03-19T12:14:01.095Z,19
2019-03-19T12:15:01.128Z,19
2019-03-19T12:16:01.094Z,17
2019-03-19T12:17:01.095Z,19
2019-03-19T12:18:01.101Z,17
2019-03-19T12:19:01.114Z,15
2019-03-19T12:20:01.130Z,13
2019-03-19T12:21:01.095Z,15
2019-03-19T12:23:01.095Z,16
2019-03-19T12:24:01.097Z,18
2019-03-19T12:25:01.144Z,20
2019-03-19T12:26:01.097Z,21
2019-03-19T12:27:01.098Z,18
2019-03-19T12:29:01.080Z,19
2019-03-19T12:30:01.084Z,20
2019-03-19T12:31:01.080Z,17
2019-03-19T12:32:01.083Z,15
2019-03-19T12:33:01.083Z,16
2019-03-19T12:35:01.739Z,14
2019-03-19T12:37:01.081Z,15
2019-03-19T12:39:01.095Z,14
2019-03-19T12:40:01.084Z,13
2019-03-19T12:41:01.104Z,14
2019-03-19T12:42:01.079Z,15
2019-03-19T12:43:01.079Z,13
2019-03-19T12:44:01.086Z,15
2019-03-19T12:45:01.084Z,15
2019-03-19T12:46:01.106Z,14
2019-03-19T12:48:01.082Z,17
2019-03-19T12:49:01.084Z,15
2019-03-19T12:50:01.082Z,17
2019-03-19T12:52:01.081Z,18
2019-03-19T12:53:01.112Z,17
2019-03-19T12:54:01.079Z,18
2019-03-19T12:55:01.081Z,17
2019-03-19T12:56:01.080Z,18
2019-03-19T12:57:01.079Z,17
2019-03-19T13:00:01.091Z,15
2019-03-19T13:04:01.105Z,13
2019-03-19T13:05:01.080Z,14
2019-03-19T13:06:01.078Z,16
2019-03-19T13:07:01.077Z,15
2019-03-19T13:08:01.077Z,16
2019-03-19T13:09:01.266Z,18
2019-03-19T13:10:01.078Z,20
2019-03-19T13:12:01.086Z,21
2019-03-19T13:13:01.077Z,19
2019-03-19T13:15:01.078Z,17
2019-03-19T13:17:01.080Z,16
2019-03-19T13:21:01.084Z,14
2019-03-19T13:23:01.080Z,16
2019-03-19T13:24:01.734Z,17
2019-03-19T13:25:01.081Z,18
2019-03-19T13:26:01.082Z,19
2019-03-19T13:27:01.084Z,20
2019-03-19T13:28:01.082Z,18
2019-03-19T13:30:01.083Z,18
2019-03-19T13:31:01.081Z,17
2019-03-19T13:32:01.084Z,16
2019-03-19T13:33:01.080Z,15
2019-03-19T13:35:02.236Z,14
2019-03-19T13:36:01.083Z,16
2019-03-19T13:37:01.086Z,15
2019-03-19T13:39:01.080Z,16
2019-03-19T13:40:01.082Z,15
2019-03-19T13:41:01.082Z,14
2019-03-19T13:42:01.081Z,16
2019-03-19T13:45:01.083Z,16
2019-03-19T13:46:01.085Z,18
2019-03-19T13:47:02.102Z,17
2019-03-19T13:50:01.086Z,18
2019-03-19T13:52:01.084Z,19
2019-03-19T13:53:01.085Z,20
2019-03-19T13:56:01.108Z,18
2019-03-19T13:58:01.085Z,17
2019-03-19T13:59:01.083Z,15
2019-03-19T14:00:01.100Z,13
2019-03-19T14:01:01.107Z,16
2019-03-19T14:02:01.082Z,15
2019-03-19T14:03:01.083Z,13
2019-03-19T14:04:01.084Z,15
2019-03-19T14:05:01.090Z,18
2019-03-19T14:06:01.119Z,16
2019-03-19T14:08:01.084Z,17
2019-03-19T14:09:01.087Z,19
2019-03-19T14:10:01.089Z,18
2019-03-19T14:12:01.085Z,20
2019-03-19T14:14:01.085Z,18
2019-03-19T14:15:01.092Z,18
2019-03-19T14:16:01.109Z,19
2019-03-19T14:17:01.085Z,17
2019-03-19T14:18:01.084Z,16
2019-03-19T14:20:01.097Z,17
2019-03-19T14:21:01.117Z,16
2019-03-19T14:23:01.089Z,18
2019-03-19T14:25:01.092Z,16
2019-03-19T14:27:01.109Z,17
2019-03-19T14:28:01.086Z,16
2019-03-19T14:29:01.086Z,15
2019-03-19T14:30:01.088Z,15
2019-03-19T14:40:01.087Z,16
2019-03-19T14:45:01.104Z,15
2019-03-19T14:46:01.113Z,16
2019-03-19T14:47:01.087Z,17
2019-03-19T14:48:01.088Z,15
2019-03-19T14:49:01.087Z,16
2019-03-19T14:52:01.115Z,15
2019-03-19T14:54:01.089Z,14
2019-03-19T14:56:01.087Z,15
2019-03-19T14:57:01.113Z,17
2019-03-19T14:58:01.086Z,18
2019-03-19T14:59:01.085Z,21
2019-03-19T15:00:01.084Z,21
2019-03-19T15:01:01.084Z,19
2019-03-19T15:02:01.118Z,20
2019-03-19T15:03:01.084Z,21
2019-03-19T15:04:01.086Z,19
2019-03-19T15:05:01.086Z,20
2019-03-19T15:07:01.922Z,19
2019-03-19T15:08:01.109Z,17
2019-03-19T15:09:01.086Z,15
2019-03-19T15:11:01.097Z,18
2019-03-19T15:12:01.084Z,16
2019-03-19T15:13:01.115Z,17
2019-03-19T15:14:01.085Z,18
2019-03-19T15:15:01.085Z,18
2019-03-19T15:16:01.084Z,16
2019-03-19T15:17:04.975Z,18
2019-03-19T15:18:01.128Z,17
2019-03-19T15:22:01.084Z,16
2019-03-19T15:24:01.084Z,17
2019-03-19T15:26:01.085Z,16
2019-03-19T15:27:01.082Z,17
2019-03-19T15:30:01.091Z,14
2019-03-19T15:31:01.084Z,16
2019-03-19T15:34:01.089Z,15
2019-03-19T15:35:01.083Z,18
2019-03-19T15:36:01.084Z,16
2019-03-19T15:37:01.085Z,17
2019-03-19T15:39:01.110Z,18
2019-03-19T15:40:01.083Z,17
2019-03-19T15:42:01.089Z,16
2019-03-19T15:44:01.086Z,17
2019-03-19T15:45:01.083Z,17
2019-03-19T15:47:01.084Z,16
2019-03-19T15:48:01.084Z,19
2019-03-19T15:49:01.104Z,20
2019-03-19T15:50:01.085Z,21
2019-03-19T15:51:01.110Z,23
2019-03-19T15:52:01.083Z,25
2019-03-19T15:53:01.083Z,22
2019-03-19T15:54:01.082Z,21
2019-03-19T15:55:01.083Z,19
2019-03-19T15:56:01.115Z,17
2019-03-19T15:57:01.087Z,16
2019-03-19T15:58:01.083Z,17
2019-03-19T16:00:01.094Z,17
2019-03-19T16:02:01.092Z,18
2019-03-19T16:03:01.089Z,19
2019-03-19T16:04:01.082Z,18
2019-03-19T16:05:01.084Z,19
2019-03-19T16:06:01.084Z,21
2019-03-19T16:07:01.772Z,20
2019-03-19T16:08:01.087Z,19
2019-03-19T16:09:03.274Z,21
2019-03-19T16:10:01.085Z,22
2019-03-19T16:11:01.082Z,21
2019-03-19T16:14:01.084Z,18
2019-03-19T16:15:01.086Z,17
2019-03-19T16:16:01.086Z,16
2019-03-19T16:17:01.090Z,14
2019-03-19T16:20:01.100Z,13
2019-03-19T16:21:01.085Z,14
2019-03-19T16:22:01.098Z,15
2019-03-19T16:23:01.149Z,16
2019-03-19T16:24:01.087Z,18
2019-03-19T16:26:01.087Z,19
2019-03-19T16:27:01.086Z,18
2019-03-19T16:29:01.088Z,17
2019-03-19T16:30:01.090Z,16
2019-03-19T16:31:01.089Z,15
2019-03-19T16:32:01.117Z,14
2019-03-19T16:33:01.092Z,13
2019-03-19T16:35:01.087Z,14
2019-03-19T16:36:01.095Z,13
2019-03-19T16:37:01.088Z,14
2019-03-19T16:38:01.089Z,16
2019-03-19T16:39:01.092Z,17
2019-03-19T16:41:01.094Z,18
2019-03-19T16:42:01.092Z,17
2019-03-19T16:44:01.090Z,16
2019-03-19T16:45:01.093Z,17
2019-03-19T16:46:01.097Z,18
2019-03-19T16:47:01.116Z,17
2019-03-19T16:48:01.118Z,18
2019-03-19T16:49:01.095Z,19
2019-03-19T16:53:01.124Z,18
2019-03-19T16:54:01.227Z,17
2019-03-19T16:57:01.091Z,19
2019-03-19T16:58:01.138Z,18
2019-03-19T17:00:01.260Z,16
2019-03-19T17:01:01.094Z,15
2019-03-19T17:02:01.903Z,14
2019-03-19T17:03:01.597Z,15
2019-03-19T17:04:01.092Z,19
2019-03-19T17:06:01.093Z,20
2019-03-19T17:07:01.094Z,19
2019-03-19T17:08:01.096Z,18
2019-03-19T17:09:06.104Z,14
2019-03-19T17:10:01.092Z,15
2019-03-19T17:13:01.094Z,16
2019-03-19T17:14:01.133Z,19
2019-03-19T17:15:01.111Z,18
2019-03-19T17:16:01.095Z,17
2019-03-19T17:17:01.092Z,16
2019-03-19T17:19:01.097Z,15
2019-03-19T17:21:01.091Z,14
2019-03-19T17:23:01.097Z,15
2019-03-19T17:24:01.093Z,14
2019-03-19T17:27:01.096Z,13
2019-03-19T17:29:01.126Z,14
2019-03-19T17:30:01.093Z,12
2019-03-19T17:31:01.094Z,13
2019-03-19T17:32:01.094Z,15
2019-03-19T17:33:01.101Z,14
2019-03-19T17:34:01.139Z,15
2019-03-19T17:36:01.093Z,16
2019-03-19T17:37:01.100Z,15
2019-03-19T17:38:01.092Z,14
2019-03-19T17:42:01.092Z,13
2019-03-19T17:43:01.092Z,15
2019-03-19T17:45:01.098Z,16
2019-03-19T17:46:01.094Z,15
2019-03-19T17:47:01.099Z,16
2019-03-19T17:48:01.095Z,14
2019-03-19T17:50:01.095Z,16
2019-03-19T17:51:01.093Z,15
2019-03-19T17:54:01.127Z,16
2019-03-19T17:55:01.095Z,15
2019-03-19T17:56:01.102Z,17
2019-03-19T17:58:01.130Z,18
2019-03-19T18:00:01.080Z,16
2019-03-19T18:01:01.111Z,15
2019-03-19T18:02:01.085Z,14
2019-03-19T18:03:01.085Z,13
2019-03-19T18:04:01.178Z,14
2019-03-19T18:05:01.090Z,16
2019-03-19T18:08:01.083Z,17
2019-03-19T18:09:01.085Z,16
2019-03-19T18:10:02.143Z,15
2019-03-19T18:11:01.089Z,16
2019-03-19T18:12:01.083Z,17
2019-03-19T18:14:01.081Z,16
2019-03-19T18:15:01.083Z,16
2019-03-19T18:16:01.082Z,15
2019-03-19T18:20:01.088Z,16
2019-03-19T18:21:01.085Z,17
2019-03-19T18:22:01.082Z,18
2019-03-19T18:24:01.087Z,19
2019-03-19T18:26:01.121Z,18
2019-03-19T18:28:01.084Z,19
2019-03-19T18:30:01.085Z,18
2019-03-19T18:31:01.087Z,17
2019-03-19T18:34:09.806Z,16
2019-03-19T18:35:01.086Z,19
2019-03-19T18:38:01.093Z,20
2019-03-19T18:39:01.086Z,19
2019-03-19T18:40:01.085Z,17
2019-03-19T18:41:01.085Z,19
2019-03-19T18:42:01.089Z,18
2019-03-19T18:43:01.089Z,15
2019-03-19T18:44:01.087Z,17
2019-03-19T18:45:01.089Z,17
2019-03-19T18:47:01.113Z,16
2019-03-19T18:48:01.087Z,18
2019-03-19T18:50:01.086Z,17
2019-03-19T18:51:01.087Z,19
2019-03-19T18:52:01.885Z,20
2019-03-19T18:54:01.088Z,19
2019-03-19T18:56:01.084Z,17
2019-03-19T18:57:01.086Z,16
2019-03-19T18:58:01.111Z,14
2019-03-19T18:59:01.088Z,13
2019-03-19T19:00:01.106Z,13
2019-03-19T19:01:01.089Z,15
2019-03-19T19:03:01.113Z,16
2019-03-19T19:05:01.101Z,17
2019-03-19T19:06:01.088Z,16
2019-03-19T19:08:01.111Z,18
2019-03-19T19:09:01.085Z,17
2019-03-19T19:10:01.092Z,16
2019-03-19T19:13:01.111Z,13
2019-03-19T19:14:01.088Z,15
2019-03-19T19:15:01.087Z,16
2019-03-19T19:16:01.094Z,17
2019-03-19T19:18:02.663Z,18
2019-03-19T19:19:01.119Z,16
2019-03-19T19:21:01.088Z,15
2019-03-19T19:23:02.854Z,17
2019-03-19T19:24:01.087Z,16
2019-03-19T19:25:01.111Z,15
2019-03-19T19:26:01.091Z,14
2019-03-19T19:27:01.089Z,15
2019-03-19T19:28:01.087Z,13
2019-03-19T19:30:01.128Z,14
2019-03-19T19:31:01.092Z,17
2019-03-19T19:32:01.087Z,16
2019-03-19T19:34:01.092Z,17
2019-03-19T19:36:01.122Z,16
2019-03-19T19:37:01.088Z,15
2019-03-19T19:38:03.204Z,17
2019-03-19T19:39:01.091Z,18
2019-03-19T19:40:01.094Z,19
2019-03-19T19:41:01.112Z,18
2019-03-19T19:42:01.090Z,17
2019-03-19T19:43:01.089Z,16
2019-03-19T19:44:01.093Z,14
2019-03-19T19:45:01.092Z,13
2019-03-19T19:46:01.228Z,12
2019-03-19T19:47:01.091Z,13
2019-03-19T19:48:01.092Z,14
2019-03-19T19:50:01.090Z,17
2019-03-19T19:51:01.090Z,18
2019-03-19T19:54:01.117Z,19
2019-03-19T19:55:01.091Z,16
2019-03-19T19:59:01.107Z,15
2019-03-19T20:00:01.998Z,16
2019-03-19T20:01:01.090Z,18
2019-03-19T20:02:01.092Z,17
2019-03-19T20:03:11.693Z,18
2019-03-19T20:05:03.052Z,17
2019-03-19T20:06:01.103Z,16
2019-03-19T20:07:01.091Z,15
2019-03-19T20:08:01.090Z,13
2019-03-19T20:09:01.165Z,14
2019-03-19T20:11:01.092Z,12
2019-03-19T20:12:01.125Z,16
2019-03-19T20:13:01.092Z,17
2019-03-19T20:14:01.092Z,16
2019-03-19T20:15:01.094Z,16
2019-03-19T20:16:01.092Z,18
2019-03-19T20:17:01.122Z,16
2019-03-19T20:18:01.125Z,15
2019-03-19T20:19:01.093Z,16
2019-03-19T20:21:01.099Z,15
2019-03-19T20:22:01.095Z,16
2019-03-19T20:23:01.128Z,15
2019-03-19T20:28:01.079Z,14
2019-03-19T20:30:01.082Z,15
2019-03-19T20:32:01.077Z,14
2019-03-19T20:33:01.077Z,16
2019-03-19T20:35:01.106Z,15
2019-03-19T20:36:01.081Z,14
2019-03-19T20:37:01.118Z,18
2019-03-19T20:38:01.078Z,16